Time;durP1;ratioP1;P1;durP2;ratioP2;P2;SDS_P1;SDS_P2;PMS_P1;PMS_P2;Temp;Humidity;BMP_temperature;BMP_pressure;BME280_temperature;BME280_humidity;BME280_pressure;Samples;Min_cycle;Max_cycle;Signal;HPM_P1;HPM_P2
2024/03/27 00:01:26;;;;;;;16.40;2.47;;;11.00;1.00;;;;;;5018373;28;20297;-86
2024/03/27 00:03:52;;;;;;;17.75;3.05;;;11.00;1.00;;;;;;5036341;28;20170;-86
2024/03/27 00:06:17;;;;;;;13.53;2.30;;;11.00;1.00;;;;;;5018282;28;20718;-86
2024/03/27 00:08:43;;;;;;;14.57;2.30;;;11.00;1.00;;;;;;5035979;28;20162;-86
2024/03/27 00:11:09;;;;;;;15.67;3.50;;;10.90;1.00;;;;;;5017572;28;20185;-86
2024/03/27 00:13:34;;;;;;;15.20;3.30;;;10.90;1.00;;;;;;5035868;28;20208;-86
2024/03/27 00:16:00;;;;;;;14.80;2.83;;;10.90;1.00;;;;;;5035140;28;20409;-86
2024/03/27 00:18:25;;;;;;;13.30;2.23;;;10.90;1.00;;;;;;5035188;28;20176;-87
2024/03/27 00:20:51;;;;;;;15.10;2.47;;;10.80;1.00;;;;;;5017349;28;20278;-86
2024/03/27 00:23:17;;;;;;;14.40;2.33;;;10.80;1.00;;;;;;5035262;28;20184;-86
2024/03/27 00:25:43;;;;;;;16.47;3.30;;;10.80;1.00;;;;;;5017591;28;20635;-86
2024/03/27 00:28:09;;;;;;;17.13;2.90;;;10.80;1.00;;;;;;5035468;28;20162;-86
2024/03/27 00:30:35;;;;;;;14.95;2.85;;;10.80;1.00;;;;;;5017066;28;20174;-86
2024/03/27 00:33:02;;;;;;;15.80;2.93;;;10.80;1.00;;;;;;5034604;28;20590;-86
2024/03/27 00:35:28;;;;;;;15.02;2.70;;;10.80;1.00;;;;;;5017282;28;20220;-87
2024/03/27 00:37:53;;;;;;;15.05;2.53;;;10.80;1.00;;;;;;5034509;28;20162;-86
2024/03/27 00:40:20;;;;;;;14.70;2.50;;;10.80;1.00;;;;;;5033773;28;20202;-86
2024/03/27 00:42:46;;;;;;;14.75;2.97;;;10.80;1.00;;;;;;5015821;28;20186;-86
2024/03/27 00:45:13;;;;;;;15.20;2.85;;;10.70;1.00;;;;;;5015851;28;20170;-86
2024/03/27 00:47:39;;;;;;;15.10;2.60;;;10.70;1.00;;;;;;5033558;28;20162;-86
2024/03/27 00:50:06;;;;;;;15.00;2.42;;;10.60;1.00;;;;;;5033379;28;20508;-86
2024/03/27 00:52:32;;;;;;;17.00;3.25;;;10.60;1.00;;;;;;5033258;28;20257;-86
2024/03/27 00:54:58;;;;;;;16.25;2.90;;;10.60;1.00;;;;;;5015622;28;20174;-86
2024/03/27 00:57:24;;;;;;;14.77;2.70;;;10.60;1.00;;;;;;5015620;28;20196;-86
2024/03/27 00:59:49;;;;;;;16.50;3.42;;;10.70;1.00;;;;;;5015413;28;20510;-86
2024/03/27 01:02:15;;;;;;;17.03;2.40;;;10.70;1.00;;;;;;5034217;28;20722;-86
2024/03/27 01:04:41;;;;;;;14.03;2.50;;;10.70;1.00;;;;;;5037395;28;20173;-86
2024/03/27 01:07:07;;;;;;;16.70;3.00;;;10.70;1.00;;;;;;5019159;28;20416;-86
2024/03/27 01:09:33;;;;;;;15.87;2.40;;;10.70;1.00;;;;;;5036877;28;20166;-86
2024/03/27 01:11:59;;;;;;;15.30;3.22;;;10.70;1.00;;;;;;5036571;28;20578;-86
2024/03/27 01:14:25;;;;;;;15.17;2.83;;;10.70;1.00;;;;;;5036628;28;20242;-86
2024/03/27 01:16:51;;;;;;;16.75;3.30;;;10.60;1.00;;;;;;5036631;28;20177;-87
2024/03/27 01:19:19;;;;;;;14.33;2.57;;;10.60;1.00;;;;;;5018621;28;20166;-86
2024/03/27 01:21:44;;;;;;;16.10;3.03;;;10.60;1.00;;;;;;5018396;28;20961;-86
2024/03/27 01:24:10;;;;;;;26.20;3.13;;;10.60;1.00;;;;;;5036733;28;20158;-86
2024/03/27 01:26:36;;;;;;;14.50;2.93;;;10.60;1.00;;;;;;5018638;28;20658;-86
2024/03/27 01:29:01;;;;;;;17.17;2.80;;;10.60;1.00;;;;;;5018536;28;20170;-86
2024/03/27 01:31:27;;;;;;;16.40;2.70;;;10.60;1.00;;;;;;5018442;28;20690;-87
2024/03/27 01:33:53;;;;;;;13.80;2.80;;;10.60;1.00;;;;;;5018650;28;20173;-86
2024/03/27 01:36:18;;;;;;;14.10;2.60;;;10.50;1.00;;;;;;5018464;28;20173;-86
2024/03/27 01:38:45;;;;;;;20.97;3.20;;;10.60;1.00;;;;;;5036244;28;20224;-86
2024/03/27 01:41:11;;;;;;;14.30;2.22;;;10.50;1.00;;;;;;5018147;28;20209;-86
2024/03/27 01:43:37;;;;;;;14.10;2.35;;;10.50;1.00;;;;;;5019269;28;20170;-86
2024/03/27 01:46:09;;;;;;;13.90;2.70;;;10.60;1.00;;;;;;5036060;28;20639;-86
2024/03/27 01:48:35;;;;;;;14.38;2.00;;;10.60;1.00;;;;;;5018187;28;20158;-86
2024/03/27 01:51:03;;;;;;;14.67;3.10;;;10.60;1.00;;;;;;5018010;28;20632;-86
2024/03/27 01:53:30;;;;;;;15.15;3.08;;;10.50;1.00;;;;;;5018086;28;20412;-86
2024/03/27 01:55:56;;;;;;;14.20;2.58;;;10.50;1.00;;;;;;5018024;28;20178;-86
2024/03/27 01:58:22;;;;;;;17.03;3.40;;;10.50;1.00;;;;;;5035986;28;20157;-86
2024/03/27 02:00:48;;;;;;;15.23;2.70;;;10.50;1.00;;;;;;5018014;28;20543;-86
2024/03/27 02:03:14;;;;;;;17.10;3.00;;;10.40;1.00;;;;;;5019060;28;20408;-86
2024/03/27 02:05:41;;;;;;;15.27;2.22;;;10.40;1.00;;;;;;5021135;28;20540;-87
2024/03/27 02:08:07;;;;;;;16.55;2.85;;;10.40;1.00;;;;;;5020260;28;20520;-86
2024/03/27 02:10:33;;;;;;;16.10;2.67;;;10.40;1.00;;;;;;5037094;28;20176;-86
2024/03/27 02:12:58;;;;;;;14.50;2.50;;;10.40;1.00;;;;;;5036898;28;20174;-86
2024/03/27 02:15:24;;;;;;;13.70;2.47;;;10.40;1.00;;;;;;5019353;28;20241;-87
2024/03/27 02:17:50;;;;;;;15.60;2.80;;;10.40;1.00;;;;;;5036756;28;20216;-86
2024/03/27 02:20:16;;;;;;;13.82;2.45;;;10.30;1.00;;;;;;5037000;28;20240;-87
2024/03/27 02:22:42;;;;;;;16.47;2.70;;;10.40;1.00;;;;;;5019014;28;20197;-87
2024/03/27 02:25:14;;;;;;;15.17;2.67;;;10.30;1.00;;;;;;5019833;28;20914;-86
2024/03/27 02:27:40;;;;;;;14.10;2.38;;;10.30;1.00;;;;;;5019489;28;20168;-86
2024/03/27 02:30:06;;;;;;;15.10;2.57;;;10.30;1.00;;;;;;5037078;28;20174;-86
2024/03/27 02:32:34;;;;;;;15.27;2.30;;;10.40;1.00;;;;;;5036493;28;20216;-86
2024/03/27 02:34:59;;;;;;;14.75;2.70;;;10.40;1.00;;;;;;5036280;28;20168;-87
2024/03/27 02:37:25;;;;;;;15.83;2.73;;;10.40;1.00;;;;;;5036612;28;20166;-86
2024/03/27 02:39:51;;;;;;;16.63;2.60;;;10.40;1.00;;;;;;5036846;28;20197;-87
2024/03/27 02:42:16;;;;;;;16.07;2.80;;;10.40;1.00;;;;;;5018223;28;20190;-86
2024/03/27 02:44:42;;;;;;;14.50;2.53;;;10.40;1.00;;;;;;5036633;28;20158;-86
2024/03/27 02:47:07;;;;;;;13.73;2.20;;;10.30;1.00;;;;;;5036402;28;20162;-87
2024/03/27 02:49:33;;;;;;;16.13;2.90;;;10.30;1.00;;;;;;5018363;28;20170;-87
2024/03/27 02:51:59;;;;;;;18.57;3.43;;;10.30;1.00;;;;;;5018325;28;20182;-86
2024/03/27 02:54:24;;;;;;;17.87;3.07;;;10.20;1.00;;;;;;5018563;28;20169;-86
2024/03/27 02:56:50;;;;;;;14.27;2.40;;;10.20;1.00;;;;;;5036272;28;20971;-86
2024/03/27 02:59:16;;;;;;;15.67;3.00;;;10.20;1.00;;;;;;5036684;28;20193;-86
2024/03/27 03:01:41;;;;;;;16.33;3.00;;;10.20;1.00;;;;;;5036029;28;21012;-87
2024/03/27 03:04:07;;;;;;;14.40;2.50;;;10.20;1.00;;;;;;5036125;28;20203;-86
2024/03/27 03:06:36;;;;;;;18.00;3.90;;;10.20;1.00;;;;;;5019019;28;20170;-86
2024/03/27 03:09:01;;;;;;;14.15;2.53;;;10.20;1.00;;;;;;5019005;28;20228;-86
2024/03/27 03:11:27;;;;;;;14.83;3.60;;;10.20;1.00;;;;;;5019076;28;20189;-87
2024/03/27 03:13:53;;;;;;;15.23;2.93;;;10.20;1.00;;;;;;5036415;28;20172;-87
2024/03/27 03:16:19;;;;;;;19.27;3.47;;;10.20;1.00;;;;;;5018047;28;20173;-86
2024/03/27 03:18:47;;;;;;;15.80;2.70;;;10.20;1.00;;;;;;5018120;28;20466;-87
2024/03/27 03:21:13;;;;;;;16.83;3.25;;;10.20;1.00;;;;;;5017276;28;20205;-86
2024/03/27 03:23:38;;;;;;;15.33;3.20;;;10.10;1.00;;;;;;5034774;28;20177;-87
2024/03/27 03:26:04;;;;;;;15.60;3.10;;;10.10;1.00;;;;;;5034334;28;20575;-87
2024/03/27 03:28:30;;;;;;;27.90;3.60;;;10.10;1.00;;;;;;5034272;28;20505;-86
2024/03/27 03:31:07;;;;;;;16.90;3.23;;;10.10;1.00;;;;;;5016231;28;20198;-86
2024/03/27 03:33:33;;;;;;;16.45;3.25;;;10.10;1.00;;;;;;5033947;28;20627;-86
2024/03/27 03:35:59;;;;;;;24.00;3.23;;;10.10;1.00;;;;;;5016954;28;20326;-86
2024/03/27 03:38:28;;;;;;;16.23;3.30;;;10.10;1.00;;;;;;5016856;28;20176;-87
2024/03/27 03:41:01;;;;;;;15.45;2.88;;;10.10;1.00;;;;;;5034017;28;20487;-87
2024/03/27 03:43:26;;;;;;;16.75;3.90;;;10.00;1.00;;;;;;5016170;28;20170;-86
2024/03/27 03:45:52;;;;;;;14.43;2.93;;;10.10;1.00;;;;;;5016232;28;20308;-86
2024/03/27 03:48:17;;;;;;;15.03;3.20;;;10.00;1.00;;;;;;5034244;28;20169;-86
2024/03/27 03:50:43;;;;;;;19.43;3.13;;;10.10;1.00;;;;;;5016297;28;20173;-86
2024/03/27 03:53:09;;;;;;;17.03;3.00;;;10.10;1.00;;;;;;5033787;28;20237;-86
2024/03/27 03:55:35;;;;;;;17.07;3.53;;;10.10;1.00;;;;;;5016354;28;20169;-86
2024/03/27 03:58:00;;;;;;;16.53;2.90;;;10.10;1.00;;;;;;5033983;28;20166;-86
2024/03/27 04:00:26;;;;;;;14.77;2.80;;;10.10;1.00;;;;;;5016015;28;20535;-86
2024/03/27 04:02:52;;;;;;;15.17;3.00;;;10.10;1.00;;;;;;5015889;28;20221;-86
2024/03/27 04:05:18;;;;;;;16.38;3.40;;;10.00;1.00;;;;;;5015954;28;20170;-87
2024/03/27 04:07:47;;;;;;;14.50;2.60;;;10.00;1.00;;;;;;5015963;28;20173;-87
2024/03/27 04:10:12;;;;;;;18.75;3.47;;;10.00;1.00;;;;;;5033593;28;20171;-86
2024/03/27 04:12:38;;;;;;;16.37;2.97;;;10.00;6.20;;;;;;5033562;28;20659;-86
2024/03/27 04:15:05;;;;;;;16.80;3.17;;;10.00;1.10;;;;;;5015923;28;20396;-87
2024/03/27 04:17:31;;;;;;;15.73;3.13;;;10.00;1.00;;;;;;5033600;28;20170;-86
2024/03/27 04:20:01;;;;;;;18.48;2.55;;;10.00;1.00;;;;;;5033478;28;20189;-86
2024/03/27 04:22:30;;;;;;;14.68;3.17;;;10.00;1.00;;;;;;5033256;28;20194;-86
2024/03/27 04:24:56;;;;;;;21.35;3.75;;;10.00;1.00;;;;;;5015642;28;20758;-86
2024/03/27 04:27:25;;;;;;;18.23;3.80;;;10.00;1.00;;;;;;5015821;28;20269;-86
2024/03/27 04:29:54;;;;;;;15.85;3.25;;;10.00;1.00;;;;;;5034125;28;20799;-86
2024/03/27 04:32:20;;;;;;;17.00;3.30;;;10.00;1.00;;;;;;5033401;28;20240;-86
2024/03/27 04:34:46;;;;;;;14.60;2.90;;;10.00;1.00;;;;;;5033401;28;20587;-86
2024/03/27 04:37:11;;;;;;;17.50;3.63;;;10.00;1.00;;;;;;5034414;28;20161;-86
2024/03/27 04:39:37;;;;;;;17.40;3.23;;;10.00;4.90;;;;;;5037324;28;20157;-86
2024/03/27 04:42:03;;;;;;;16.50;3.70;;;10.00;5.20;;;;;;5019870;28;20458;-86
2024/03/27 04:44:29;;;;;;;16.20;3.47;;;9.90;11.00;;;;;;5019904;28;20172;-87
2024/03/27 04:46:55;;;;;;;16.97;3.60;;;9.90;13.40;;;;;;5037320;28;20404;-87
2024/03/27 04:49:20;;;;;;;16.10;3.10;;;9.90;3.90;;;;;;5040226;28;20412;-87
2024/03/27 04:51:46;;;;;;;14.90;2.83;;;9.90;3.30;;;;;;5021477;28;20690;-87
2024/03/27 04:54:11;;;;;;;17.50;3.60;;;9.90;4.10;;;;;;5037834;28;20177;-86
2024/03/27 04:56:37;;;;;;;19.50;3.43;;;9.90;3.00;;;;;;5037927;28;20193;-87
2024/03/27 04:59:03;;;;;;;17.10;3.47;;;10.00;2.10;;;;;;5020143;28;20201;-86
2024/03/27 05:01:29;;;;;;;16.98;4.18;;;10.00;1.00;;;;;;5019737;28;20308;-86
2024/03/27 05:03:55;;;;;;;17.73;3.87;;;10.00;1.00;;;;;;5037555;28;20190;-87
2024/03/27 05:06:21;;;;;;;18.67;4.63;;;9.90;1.00;;;;;;5019734;28;20173;-86
2024/03/27 05:08:47;;;;;;;17.13;4.00;;;10.00;1.00;;;;;;5037841;28;20222;-87
2024/03/27 05:11:13;;;;;;;17.97;3.80;;;10.00;1.00;;;;;;5019267;28;20225;-86
2024/03/27 05:13:38;;;;;;;16.60;3.50;;;10.10;1.00;;;;;;5037071;28;20197;-87
2024/03/27 05:16:04;;;;;;;16.20;3.77;;;10.00;1.00;;;;;;5019412;28;20170;-86
2024/03/27 05:18:30;;;;;;;17.52;5.05;;;10.00;1.00;;;;;;5037802;28;20678;-86
2024/03/27 05:20:56;;;;;;;17.53;4.10;;;10.00;1.00;;;;;;5037421;28;20289;-87
2024/03/27 05:23:22;;;;;;;17.02;4.45;;;10.10;1.00;;;;;;5037116;28;20181;-87
2024/03/27 05:25:47;;;;;;;16.50;4.30;;;10.10;1.00;;;;;;5019400;28;20508;-87
2024/03/27 05:28:13;;;;;;;17.73;4.37;;;10.10;1.00;;;;;;5019297;28;20539;-87
2024/03/27 05:30:39;;;;;;;22.85;4.30;;;10.10;1.00;;;;;;5036614;28;20170;-86
2024/03/27 05:33:05;;;;;;;14.85;3.70;;;10.10;1.00;;;;;;5036495;28;20174;-86
2024/03/27 05:35:31;;;;;;;22.13;4.20;;;10.10;6.70;;;;;;5019112;28;20170;-87
2024/03/27 05:38:00;;;;;;;15.70;4.27;;;10.10;15.20;;;;;;5018808;28;20416;-87
2024/03/27 05:40:25;;;;;;;16.80;4.45;;;10.10;11.30;;;;;;5036539;28;20532;-87
2024/03/27 05:42:51;;;;;;;18.63;4.90;;;10.10;10.90;;;;;;5036314;28;20196;-87
2024/03/27 05:45:17;;;;;;;17.37;4.50;;;10.10;7.20;;;;;;5018694;28;20168;-87
2024/03/27 05:47:42;;;;;;;19.00;5.50;;;10.10;7.40;;;;;;5035965;28;20176;-87
2024/03/27 05:50:09;;;;;;;18.27;4.13;;;10.10;7.90;;;;;;5036221;28;20766;-87
2024/03/27 05:52:36;;;;;;;19.13;4.22;;;10.20;9.60;;;;;;5036040;28;20178;-87
2024/03/27 05:55:03;;;;;;;21.83;4.75;;;10.20;16.70;;;;;;5035962;28;20169;-86
2024/03/27 05:57:30;;;;;;;20.90;4.40;;;10.20;23.60;;;;;;5036123;28;20210;-87
2024/03/27 05:59:55;;;;;;;15.77;3.72;;;10.30;24.30;;;;;;5035865;28;20623;-86
2024/03/27 06:02:21;;;;;;;20.53;4.10;;;10.30;26.20;;;;;;5018144;28;20689;-87
2024/03/27 06:04:47;;;;;;;17.40;3.93;;;10.30;18.10;;;;;;5036096;28;20449;-86
2024/03/27 06:07:12;;;;;;;15.50;3.83;;;10.30;23.30;;;;;;5036163;28;20170;-86
2024/03/27 06:09:38;;;;;;;18.10;4.60;;;10.20;25.90;;;;;;5035487;28;20162;-87
2024/03/27 06:12:05;;;;;;;16.70;4.57;;;10.30;27.20;;;;;;5035292;28;20212;-86
2024/03/27 06:14:30;;;;;;;18.27;4.93;;;10.30;28.60;;;;;;5035371;28;20562;-86
2024/03/27 06:16:56;;;;;;;19.70;4.33;;;10.30;29.70;;;;;;5035632;28;20405;-86
2024/03/27 06:19:21;;;;;;;16.43;3.90;;;10.30;27.40;;;;;;5035586;28;20169;-86
2024/03/27 06:21:47;;;;;;;15.70;3.80;;;10.30;28.80;;;;;;5017095;28;20305;-86
2024/03/27 06:24:13;;;;;;;17.00;3.67;;;10.30;27.30;;;;;;5017501;28;20220;-86
2024/03/27 06:26:39;;;;;;;16.80;4.20;;;10.30;27.70;;;;;;5035371;28;20804;-86
2024/03/27 06:29:04;;;;;;;18.47;3.30;;;10.30;35.90;;;;;;5035924;28;20631;-86
2024/03/27 06:31:30;;;;;;;18.93;3.90;;;10.30;34.90;;;;;;5017856;28;20248;-86
2024/03/27 06:33:56;;;;;;;18.57;5.27;;;10.30;31.20;;;;;;5036145;28;20166;-86
2024/03/27 06:36:22;;;;;;;16.90;3.60;;;10.30;29.90;;;;;;5017891;28;20200;-86
2024/03/27 06:38:50;;;;;;;17.27;3.53;;;10.40;28.90;;;;;;5036426;28;20210;-86
2024/03/27 06:41:16;;;;;;;19.17;3.55;;;10.40;29.90;;;;;;5035260;28;20221;-86
2024/03/27 06:43:42;;;;;;;16.85;3.60;;;10.50;29.30;;;;;;5017834;28;20170;-86
2024/03/27 06:46:10;;;;;;;17.23;3.93;;;10.50;32.10;;;;;;5035797;28;20200;-86
2024/03/27 06:48:43;;;;;;;19.80;5.05;;;10.50;37.10;;;;;;5035503;28;20408;-86
2024/03/27 06:51:10;;;;;;;17.23;3.38;;;10.50;42.40;;;;;;5035513;28;20641;-86
2024/03/27 06:53:36;;;;;;;19.40;3.80;;;10.60;48.00;;;;;;5035491;28;20165;-86
2024/03/27 06:56:04;;;;;;;15.25;3.72;;;10.60;49.90;;;;;;5017392;28;20189;-86
2024/03/27 06:58:30;;;;;;;15.82;4.30;;;10.60;53.80;;;;;;5035110;28;20635;-86
2024/03/27 07:00:56;;;;;;;18.33;4.23;;;10.70;60.00;;;;;;5034280;28;20205;-86
2024/03/27 07:03:22;;;;;;;17.67;3.83;;;10.70;57.90;;;;;;5035124;28;20177;-86
2024/03/27 07:05:47;;;;;;;18.60;3.63;;;10.70;57.90;;;;;;5017210;28;20539;-86
2024/03/27 07:08:13;;;;;;;15.70;3.43;;;10.70;56.90;;;;;;5035118;28;20173;-86
2024/03/27 07:10:38;;;;;;;15.80;3.67;;;10.70;56.80;;;;;;5035008;28;20170;-86
2024/03/27 07:13:04;;;;;;;16.37;4.00;;;10.80;58.10;;;;;;5034778;28;20173;-87
2024/03/27 07:15:30;;;;;;;14.60;2.60;;;10.80;62.00;;;;;;5035291;28;20208;-86
2024/03/27 07:17:55;;;;;;;14.57;2.90;;;10.80;63.10;;;;;;5035063;28;20162;-86
2024/03/27 07:20:21;;;;;;;15.50;3.10;;;10.90;68.20;;;;;;5034741;28;20247;-86
2024/03/27 07:22:46;;;;;;;15.37;2.83;;;10.90;73.70;;;;;;5016619;28;20201;-86
2024/03/27 07:25:12;;;;;;;15.00;3.07;;;10.90;75.90;;;;;;5034780;28;20582;-86
2024/03/27 07:27:38;;;;;;;12.97;1.67;;;11.00;70.90;;;;;;5017571;28;20168;-86
2024/03/27 07:30:04;;;;;;;13.70;1.50;;;11.10;56.70;;;;;;5037520;28;20170;-87
2024/03/27 07:32:30;;;;;;;12.43;1.10;;;11.10;53.00;;;;;;5035757;28;20186;-87
2024/03/27 07:34:55;;;;;;;12.80;1.63;;;11.20;52.40;;;;;;5035235;28;20172;-87
2024/03/27 07:37:22;;;;;;;13.83;1.47;;;11.20;49.90;;;;;;5017505;28;20194;-86
2024/03/27 07:39:47;;;;;;;13.50;1.40;;;11.20;46.10;;;;;;5035391;28;20166;-87
2024/03/27 07:42:13;;;;;;;12.23;1.00;;;11.30;38.00;;;;;;5020166;28;20192;-87
2024/03/27 07:44:39;;;;;;;14.17;1.23;;;11.30;33.00;;;;;;5021480;28;20154;-87
2024/03/27 07:47:05;;;;;;;12.70;1.30;;;11.30;29.90;;;;;;5042842;28;20172;-87
2024/03/27 07:49:31;;;;;;;12.20;1.03;;;11.40;24.70;;;;;;5025434;28;20154;-86
2024/03/27 07:52:00;;;;;;;14.50;1.30;;;11.40;26.80;;;;;;5016975;23;20539;-87
2024/03/27 07:54:26;;;;;;;12.95;1.23;;;11.50;19.60;;;;;;5003102;28;20997;-87
2024/03/27 07:57:07;;;;;;;13.20;1.50;;;11.50;19.50;;;;;;5021598;28;20169;-87
2024/03/27 07:59:33;;;;;;;12.90;1.30;;;11.60;12.80;;;;;;5021636;28;20219;-86
2024/03/27 08:01:59;;;;;;;12.63;1.10;;;11.60;12.40;;;;;;5021401;28;20200;-87
2024/03/27 08:04:25;;;;;;;13.00;1.50;;;11.70;12.50;;;;;;5003736;28;20230;-87
2024/03/27 08:06:51;;;;;;;12.47;1.30;;;11.70;14.00;;;;;;5002741;28;20201;-87
2024/03/27 08:09:18;;;;;;;13.90;1.40;;;11.70;13.50;;;;;;5003824;28;20440;-87
2024/03/27 08:11:44;;;;;;;13.80;1.05;;;11.80;7.20;;;;;;5003590;28;20587;-86
2024/03/27 08:14:11;;;;;;;12.32;1.10;;;11.80;1.00;;;;;;5005274;28;20198;-87
2024/03/27 08:16:37;;;;;;;12.23;1.03;;;11.80;1.00;;;;;;5020643;28;20171;-87
2024/03/27 08:19:02;;;;;;;13.83;1.60;;;11.90;1.00;;;;;;5021926;28;20167;-87
2024/03/27 08:21:28;;;;;;;13.23;1.27;;;11.90;1.00;;;;;;5020485;28;20197;-87
2024/03/27 08:23:56;;;;;;;12.13;0.90;;;12.00;1.00;;;;;;5004878;28;20174;-87
2024/03/27 08:26:23;;;;;;;12.90;1.27;;;12.00;1.00;;;;;;5003984;28;20177;-87
2024/03/27 08:28:49;;;;;;;12.45;0.90;;;12.10;1.00;;;;;;5022021;28;20193;-86
2024/03/27 08:31:14;;;;;;;15.57;1.60;;;12.10;1.00;;;;;;5021312;28;20183;-87
2024/03/27 08:33:44;;;;;;;12.40;1.20;;;12.10;1.00;;;;;;5002809;28;20170;-87
2024/03/27 08:36:10;;;;;;;13.15;1.35;;;12.10;1.00;;;;;;5021675;28;20169;-87
2024/03/27 08:38:36;;;;;;;12.00;0.80;;;12.20;1.00;;;;;;5001541;28;20249;-86
2024/03/27 08:41:03;;;;;;;12.23;0.97;;;12.20;1.00;;;;;;5000678;28;20241;-87
2024/03/27 08:43:28;;;;;;;14.63;1.50;;;12.20;1.00;;;;;;5018318;28;20389;-86
2024/03/27 08:45:54;;;;;;;12.90;1.10;;;12.30;1.00;;;;;;4999844;28;20609;-87
2024/03/27 08:48:20;;;;;;;12.37;1.10;;;12.30;1.00;;;;;;5001729;28;20159;-86
2024/03/27 08:50:46;;;;;;;12.63;1.00;;;12.30;1.00;;;;;;5016640;28;20174;-85
2024/03/27 08:53:12;;;;;;;12.25;0.93;;;12.40;1.00;;;;;;4998548;28;20178;-86
2024/03/27 08:55:41;;;;;;;12.87;1.17;;;12.40;1.00;;;;;;5016525;28;20716;-86
2024/03/27 08:58:07;;;;;;;12.60;1.10;;;12.50;1.00;;;;;;4999149;28;20170;-86
2024/03/27 09:00:42;;;;;;;12.50;0.85;;;12.50;1.00;;;;;;5018209;28;20596;-86
2024/03/27 09:03:08;;;;;;;12.40;0.90;;;12.50;1.00;;;;;;4999700;28;20181;-86
2024/03/27 09:05:35;;;;;;;12.57;1.10;;;12.50;1.00;;;;;;4999316;28;20171;-87
2024/03/27 09:08:01;;;;;;;12.43;0.90;;;12.50;1.00;;;;;;4999694;28;20163;-86
2024/03/27 09:10:26;;;;;;;12.33;1.10;;;12.40;1.00;;;;;;4999690;28;20551;-86
2024/03/27 09:12:52;;;;;;;12.63;1.07;;;12.40;1.00;;;;;;4999071;28;20210;-85
2024/03/27 09:15:18;;;;;;;13.70;1.20;;;12.30;1.00;;;;;;4998009;28;20182;-86
2024/03/27 09:17:43;;;;;;;13.20;1.10;;;12.20;1.00;;;;;;4999324;28;20193;-87
2024/03/27 09:20:09;;;;;;;12.43;1.00;;;12.30;1.00;;;;;;4997910;28;20591;-85
2024/03/27 09:22:35;;;;;;;12.23;0.90;;;12.30;1.00;;;;;;4998793;28;20285;-86
2024/03/27 09:25:01;;;;;;;12.37;1.00;;;12.30;1.00;;;;;;5019831;28;20385;-86
2024/03/27 09:27:27;;;;;;;12.90;1.27;;;12.30;1.00;;;;;;5019853;28;20412;-86
2024/03/27 09:29:54;;;;;;;12.47;1.20;;;12.30;1.00;;;;;;5020165;28;20401;-86
2024/03/27 09:32:20;;;;;;;12.48;1.00;;;12.20;1.00;;;;;;4985554;28;20194;-85
2024/03/27 09:34:47;;;;;;;12.45;1.30;;;12.30;1.00;;;;;;5020885;28;20173;-86
2024/03/27 09:37:13;;;;;;;12.98;1.40;;;12.30;1.00;;;;;;5022147;28;20159;-86
2024/03/27 09:39:39;;;;;;;13.18;1.30;;;12.30;1.00;;;;;;5022532;28;20225;-86
2024/03/27 09:42:05;;;;;;;12.25;1.00;;;12.30;1.00;;;;;;5022410;28;20266;-87
2024/03/27 09:44:31;;;;;;;12.35;0.80;;;12.40;1.00;;;;;;5022300;28;20600;-86
2024/03/27 09:47:01;;;;;;;12.27;1.00;;;12.40;1.00;;;;;;5022365;28;20253;-86
2024/03/27 09:49:30;;;;;;;12.65;1.10;;;12.30;1.00;;;;;;5021861;28;20222;-86
2024/03/27 09:51:57;;;;;;;12.70;1.25;;;12.20;1.00;;;;;;5022050;28;20212;-86
2024/03/27 09:54:26;;;;;;;13.00;1.20;;;12.20;1.00;;;;;;5019868;28;20257;-85
2024/03/27 09:56:53;;;;;;;13.10;1.13;;;12.20;1.00;;;;;;5000182;28;20170;-85
2024/03/27 09:59:18;;;;;;;12.77;1.10;;;12.30;1.00;;;;;;5018306;28;20193;-85
2024/03/27 10:01:44;;;;;;;12.53;1.10;;;12.30;1.00;;;;;;5018070;28;20202;-85
2024/03/27 10:04:10;;;;;;;14.20;1.23;;;12.30;1.00;;;;;;5018114;28;20253;-85
2024/03/27 10:06:35;;;;;;;12.50;1.20;;;12.40;1.00;;;;;;5018984;28;20175;-86
2024/03/27 10:09:02;;;;;;;12.37;1.07;;;12.30;1.00;;;;;;5003779;28;20607;-86
2024/03/27 10:11:28;;;;;;;12.40;1.17;;;12.30;1.00;;;;;;5024276;28;20253;-87
2024/03/27 10:13:53;;;;;;;12.60;1.10;;;12.30;1.00;;;;;;5024498;28;20170;-87
2024/03/27 10:16:20;;;;;;;13.63;1.30;;;12.40;1.00;;;;;;5022864;28;20169;-86
2024/03/27 10:18:46;;;;;;;13.85;1.55;;;12.30;1.00;;;;;;5004507;28;20173;-87
2024/03/27 10:21:11;;;;;;;12.33;1.23;;;12.30;1.00;;;;;;5021769;28;20198;-87
2024/03/27 10:23:37;;;;;;;12.10;1.00;;;12.30;1.00;;;;;;5004313;28;20493;-85
2024/03/27 10:26:04;;;;;;;12.57;1.20;;;12.20;1.00;;;;;;5021221;28;20237;-84
2024/03/27 10:28:36;;;;;;;12.90;1.20;;;12.30;1.00;;;;;;5003707;28;20171;-87
2024/03/27 10:31:05;;;;;;;13.02;1.23;;;12.20;1.00;;;;;;5021828;28;20186;-86
2024/03/27 10:33:31;;;;;;;12.50;1.30;;;12.20;1.00;;;;;;5022085;28;20170;-86
2024/03/27 10:35:59;;;;;;;12.87;1.20;;;12.30;1.00;;;;;;5020286;28;20178;-86
2024/03/27 10:38:29;;;;;;;12.18;1.00;;;12.30;1.00;;;;;;5003988;28;20198;-86
2024/03/27 10:41:02;;;;;;;12.45;1.10;;;12.30;1.00;;;;;;5020732;28;20265;-87
2024/03/27 10:43:39;;;;;;;15.45;1.40;;;12.20;1.00;;;;;;5020764;28;20230;-86
2024/03/27 10:46:06;;;;;;;12.27;1.00;;;12.20;1.00;;;;;;5020784;28;20170;-86
2024/03/27 10:48:34;;;;;;;12.90;1.42;;;12.20;1.00;;;;;;5020711;28;20517;-86
2024/03/27 10:51:02;;;;;;;12.85;1.27;;;12.00;1.00;;;;;;5020906;28;20240;-86
2024/03/27 10:53:30;;;;;;;14.00;1.25;;;12.10;1.00;;;;;;5020414;28;20151;-86
2024/03/27 10:55:57;;;;;;;12.20;1.00;;;12.10;1.00;;;;;;5003451;28;20265;-86
2024/03/27 10:58:24;;;;;;;12.38;1.30;;;12.10;1.00;;;;;;5020670;28;20162;-86
2024/03/27 11:00:50;;;;;;;13.25;1.48;;;12.10;1.00;;;;;;5002773;28;20201;-86
2024/03/27 11:03:16;;;;;;;12.63;1.17;;;12.10;3.10;;;;;;5020668;28;20177;-84
2024/03/27 11:05:46;;;;;;;13.50;1.42;;;12.10;8.30;;;;;;5002326;28;20540;-84
2024/03/27 11:08:12;;;;;;;13.75;1.48;;;12.10;5.10;;;;;;5001409;28;20628;-85
2024/03/27 11:10:37;;;;;;;13.30;1.80;;;12.00;13.70;;;;;;5001919;28;20261;-85
2024/03/27 11:13:03;;;;;;;14.10;1.80;;;12.00;24.10;;;;;;5001973;28;20484;-85
2024/03/27 11:15:31;;;;;;;13.00;1.80;;;11.80;34.00;;;;;;5019299;28;20167;-85
2024/03/27 11:17:57;;;;;;;14.13;1.40;;;11.80;41.60;;;;;;5001524;28;20417;-85
2024/03/27 11:20:26;;;;;;;13.57;2.00;;;11.80;32.30;;;;;;5019478;28;20237;-85
2024/03/27 11:22:53;;;;;;;13.05;1.38;;;11.80;36.60;;;;;;5019487;28;20453;-85
2024/03/27 11:25:24;;;;;;;12.48;1.20;;;11.90;34.70;;;;;;5019100;28;20208;-85
2024/03/27 11:27:50;;;;;;;12.10;1.10;;;12.00;26.00;;;;;;5000951;28;20644;-84
2024/03/27 11:30:18;;;;;;;12.70;0.90;;;11.90;15.10;;;;;;5017116;28;20166;-83
2024/03/27 11:32:45;;;;;;;13.75;1.50;;;11.90;23.70;;;;;;4998400;28;20198;-83
2024/03/27 11:35:14;;;;;;;13.13;1.52;;;11.90;34.90;;;;;;5015547;28;20161;-83
2024/03/27 11:37:40;;;;;;;13.52;1.63;;;12.10;37.10;;;;;;4997957;28;20261;-84
2024/03/27 11:40:08;;;;;;;13.23;1.80;;;12.20;42.40;;;;;;5015730;28;20198;-84
2024/03/27 11:42:36;;;;;;;15.35;2.35;;;12.30;51.10;;;;;;4998157;28;20225;-84
2024/03/27 11:45:02;;;;;;;16.15;2.97;;;12.20;51.40;;;;;;4998025;28;20244;-84
2024/03/27 11:47:28;;;;;;;13.80;2.20;;;12.10;50.40;;;;;;5014947;28;20159;-84
2024/03/27 11:49:54;;;;;;;14.30;2.70;;;12.10;49.90;;;;;;5015727;28;20236;-84
2024/03/27 11:52:20;;;;;;;13.60;2.03;;;12.10;43.70;;;;;;5015325;28;20464;-84
2024/03/27 11:54:45;;;;;;;14.13;3.00;;;12.00;60.20;;;;;;5015726;28;20170;-84
2024/03/27 11:57:11;;;;;;;14.30;2.10;;;12.10;54.60;;;;;;5015575;28;20209;-84
2024/03/27 11:59:36;;;;;;;13.40;1.90;;;12.10;54.40;;;;;;4997211;28;20537;-84
2024/03/27 12:02:04;;;;;;;14.33;2.27;;;12.30;39.10;;;;;;4997858;28;20687;-84
2024/03/27 12:04:29;;;;;;;14.20;2.30;;;12.30;35.20;;;;;;5015560;28;20242;-84
2024/03/27 12:06:56;;;;;;;13.90;1.80;;;12.30;30.50;;;;;;5015462;28;20218;-84
2024/03/27 12:09:22;;;;;;;14.90;2.58;;;12.30;25.90;;;;;;4998008;28;20907;-84
2024/03/27 12:11:51;;;;;;;12.85;1.70;;;12.20;21.90;;;;;;4997709;28;20202;-84
2024/03/27 12:14:18;;;;;;;13.00;1.67;;;12.20;21.80;;;;;;5015396;28;20248;-84
2024/03/27 12:16:46;;;;;;;14.25;1.75;;;12.00;21.90;;;;;;5015378;28;20177;-84
2024/03/27 12:19:12;;;;;;;13.93;2.35;;;12.00;24.50;;;;;;5015656;28;20178;-84
2024/03/27 12:21:38;;;;;;;15.93;2.87;;;12.10;28.20;;;;;;5014826;28;20202;-84
2024/03/27 12:24:05;;;;;;;14.85;2.50;;;12.20;24.30;;;;;;4997772;28;20628;-83
2024/03/27 12:26:30;;;;;;;14.68;2.75;;;12.20;15.80;;;;;;5015388;28;20162;-84
2024/03/27 12:28:56;;;;;;;16.03;2.30;;;12.20;17.20;;;;;;4997693;28;20658;-84
2024/03/27 12:31:24;;;;;;;16.10;2.40;;;12.30;17.60;;;;;;5014989;28;20209;-84
2024/03/27 12:33:49;;;;;;;14.35;2.47;;;12.20;14.10;;;;;;5014921;28;20162;-85
2024/03/27 12:36:18;;;;;;;19.60;2.77;;;12.10;15.00;;;;;;5015844;28;20279;-84
2024/03/27 12:38:44;;;;;;;13.15;1.60;;;12.10;12.70;;;;;;5015884;28;20409;-84